Terminal Aerodrome Forecast
Issued by NWS Cleveland, OH

Home | Current Version | Previous Version | Graphics & Text | Print | Product List | Glossary On
Versions: 1 2 3 4 5 6 7 8 9 10 11 12 13 14 15
000
FTUS41 KCLE 151400 AAA
TAFERI
TAF AMD
KERI 151400Z 1514/1612 16020G30KT P6SM FEW250
     FM151700 17015G25KT P6SM OVC200
     FM152200 19015G25KT P6SM -SHRA OVC080
     FM160000 18020G30KT 3SM -SHRA BR OVC025
     FM160100 19020G30KT 3SM -SHRA BR OVC015
     FM160500 22020G30KT 6SM -SHRA BR OVC015
     FM161000 26020G30KT P6SM -SHRA OVC015=

USA.gov is the U.S. government's official web portal to all federal, state and local government web resources and services.